createdAt,value
2023-09-16T00:01:37.522Z,3.90
2023-09-16T00:04:05.066Z,3.73
2023-09-16T00:06:31.815Z,4.00
2023-09-16T00:08:58.445Z,4.20
2023-09-16T00:11:26.723Z,4.47
2023-09-16T00:13:53.248Z,3.77
2023-09-16T00:16:20.033Z,4.00
2023-09-16T00:18:46.864Z,4.40
2023-09-16T00:21:15.559Z,3.80
2023-09-16T00:23:43.558Z,3.50
2023-09-16T00:26:10.404Z,3.80
2023-09-16T00:28:38.211Z,4.40
2023-09-16T00:31:07.498Z,3.90
2023-09-16T00:33:34.617Z,4.73
2023-09-16T00:36:01.174Z,4.10
2023-09-16T00:38:27.811Z,4.17
2023-09-16T00:40:54.421Z,4.27
2023-09-16T00:43:21.179Z,4.07
2023-09-16T00:45:47.842Z,3.80
2023-09-16T00:48:16.355Z,4.30
2023-09-16T00:50:44.150Z,4.07
2023-09-16T00:53:12.729Z,3.80
2023-09-16T00:55:39.783Z,4.23
2023-09-16T00:58:09.226Z,4.10
2023-09-16T01:00:37.441Z,4.10
2023-09-16T01:03:06.023Z,3.70
2023-09-16T01:05:35.251Z,4.20
2023-09-16T01:08:02.585Z,4.37
2023-09-16T01:10:29.150Z,4.17
2023-09-16T01:12:58.085Z,4.37
2023-09-16T01:15:28.927Z,4.57
2023-09-16T01:18:20.579Z,4.33
2023-09-16T01:20:49.249Z,4.40
2023-09-16T01:23:19.544Z,4.20
2023-09-16T01:25:46.117Z,4.30
2023-09-16T01:28:12.647Z,4.50
2023-09-16T01:30:45.466Z,4.40
2023-09-16T01:33:26.296Z,4.17
2023-09-16T01:36:01.333Z,4.23
2023-09-16T01:38:29.957Z,4.73
2023-09-16T01:40:58.295Z,4.17
2023-09-16T01:43:26.959Z,4.70
2023-09-16T01:45:54.031Z,4.60
2023-09-16T01:48:29.796Z,4.63
2023-09-16T01:51:03.511Z,4.87
2023-09-16T01:53:30.111Z,4.33
2023-09-16T01:55:56.606Z,4.70
2023-09-16T01:58:23.138Z,4.03
2023-09-16T02:00:49.712Z,4.40
2023-09-16T02:03:17.042Z,4.73
2023-09-16T02:05:43.662Z,4.30
2023-09-16T02:08:10.224Z,4.40
2023-09-16T02:10:37.547Z,4.80
2023-09-16T02:13:04.231Z,4.60
2023-09-16T02:15:31.114Z,4.97
2023-09-16T02:17:57.658Z,5.70
2023-09-16T02:20:24.339Z,5.20
2023-09-16T02:22:50.856Z,4.30
2023-09-16T02:25:17.574Z,4.40
2023-09-16T02:27:44.062Z,4.53
2023-09-16T02:30:10.904Z,4.80
2023-09-16T02:32:37.419Z,5.10
2023-09-16T02:35:04.630Z,5.00
2023-09-16T02:37:31.215Z,5.17
2023-09-16T02:39:57.877Z,5.40
2023-09-16T02:42:24.421Z,5.20
2023-09-16T02:44:52.017Z,5.07
2023-09-16T02:47:18.564Z,5.30
2023-09-16T02:49:45.273Z,5.10
2023-09-16T02:52:12.161Z,5.60
2023-09-16T02:54:38.719Z,5.20
2023-09-16T02:57:05.314Z,5.03
2023-09-16T02:59:31.823Z,4.70
2023-09-16T03:01:58.842Z,4.90
2023-09-16T03:04:25.542Z,5.70
2023-09-16T03:06:53.522Z,5.30
2023-09-16T03:09:20.634Z,5.50
2023-09-16T03:11:48.188Z,4.77
2023-09-16T03:14:15.361Z,5.70
2023-09-16T03:16:43.141Z,5.30
2023-09-16T03:19:09.802Z,6.27
2023-09-16T03:21:36.555Z,5.80
2023-09-16T03:24:05.641Z,5.80
2023-09-16T03:26:33.949Z,5.60
2023-09-16T03:29:00.616Z,5.00
2023-09-16T03:31:28.358Z,5.87
2023-09-16T03:33:58.398Z,5.93
2023-09-16T03:36:25.897Z,5.00
2023-09-16T03:38:52.798Z,5.30
2023-09-16T03:41:19.584Z,5.90
2023-09-16T03:43:53.405Z,4.93
2023-09-16T03:46:22.958Z,5.90
2023-09-16T03:48:49.834Z,6.00
2023-09-16T03:51:16.672Z,5.60
2023-09-16T03:53:43.295Z,5.90
2023-09-16T03:56:10.094Z,5.77
2023-09-16T03:58:37.889Z,6.00
2023-09-16T04:01:05.191Z,5.73
2023-09-16T04:03:32.818Z,5.93
2023-09-16T04:05:59.519Z,6.57
2023-09-16T04:08:40.620Z,5.70
2023-09-16T04:11:09.428Z,5.20
2023-09-16T04:13:37.458Z,6.00
2023-09-16T04:16:04.904Z,5.80
2023-09-16T04:18:32.192Z,6.67
2023-09-16T04:20:58.855Z,6.10
2023-09-16T04:23:26.133Z,5.97
2023-09-16T04:25:57.991Z,6.40
2023-09-16T04:28:25.980Z,6.40
2023-09-16T04:30:54.468Z,6.40
2023-09-16T04:33:23.062Z,6.03
2023-09-16T04:35:51.873Z,6.20
2023-09-16T04:38:19.959Z,7.03
2023-09-16T04:40:49.269Z,6.33
2023-09-16T04:43:16.858Z,5.80
2023-09-16T04:45:50.667Z,6.60
2023-09-16T04:48:28.663Z,6.40
2023-09-16T04:50:55.245Z,7.47
2023-09-16T04:53:21.891Z,6.50
2023-09-16T04:55:48.431Z,6.10
2023-09-16T04:58:15.118Z,6.47
2023-09-16T05:00:43.250Z,6.63
2023-09-16T05:03:11.102Z,6.90
2023-09-16T05:05:37.943Z,7.23
2023-09-16T05:08:06.090Z,6.70
2023-09-16T05:10:33.428Z,6.43
2023-09-16T05:13:00.729Z,7.13
2023-09-16T05:15:29.002Z,7.17
2023-09-16T05:17:56.121Z,6.00
2023-09-16T05:20:22.789Z,6.90
2023-09-16T05:22:51.614Z,6.13
2023-09-16T05:25:22.570Z,7.70
2023-09-16T05:27:49.726Z,6.60
2023-09-16T05:30:17.008Z,6.80
2023-09-16T05:32:45.777Z,6.30
2023-09-16T05:35:12.358Z,6.60
2023-09-16T05:37:39.087Z,6.60
2023-09-16T05:40:07.852Z,7.23
2023-09-16T05:42:34.426Z,7.60
2023-09-16T05:45:01.750Z,7.60
2023-09-16T05:47:31.816Z,7.90
2023-09-16T05:49:59.134Z,7.43
2023-09-16T05:52:25.711Z,6.80
2023-09-16T05:54:53.653Z,7.10
2023-09-16T05:57:20.269Z,8.20
2023-09-16T05:59:46.945Z,7.13
2023-09-16T06:02:13.658Z,8.00
2023-09-16T06:04:40.219Z,6.90
2023-09-16T06:07:06.837Z,6.77
2023-09-16T06:09:34.092Z,7.77
2023-09-16T06:12:01.703Z,6.77
2023-09-16T06:14:28.257Z,7.50
2023-09-16T06:16:55.785Z,7.10
2023-09-16T06:19:26.733Z,8.00
2023-09-16T06:21:54.069Z,7.10
2023-09-16T06:24:22.678Z,7.60
2023-09-16T06:26:49.786Z,6.73
2023-09-16T06:29:16.321Z,8.00
2023-09-16T06:31:42.871Z,7.60
2023-09-16T06:34:09.976Z,8.37
2023-09-16T06:36:39.966Z,7.60
2023-09-16T06:39:08.447Z,6.63
2023-09-16T06:41:35.714Z,6.87
2023-09-16T06:44:11.500Z,7.03
2023-09-16T06:46:40.596Z,6.63
2023-09-16T06:49:07.244Z,7.80
2023-09-16T06:51:33.879Z,6.90
2023-09-16T06:54:00.411Z,6.53
2023-09-16T06:56:27.038Z,6.83
2023-09-16T06:58:57.763Z,6.93
2023-09-16T07:01:25.515Z,6.97
2023-09-16T07:03:52.146Z,7.20
2023-09-16T07:06:18.717Z,6.83
2023-09-16T07:08:45.277Z,7.53
2023-09-16T07:11:13.178Z,6.53
2023-09-16T07:13:39.644Z,6.50
2023-09-16T07:16:07.599Z,6.87
2023-09-16T07:18:35.239Z,6.70
2023-09-16T07:21:01.765Z,6.20
2023-09-16T07:23:28.344Z,6.40
2023-09-16T07:25:59.669Z,5.87
2023-09-16T07:28:28.400Z,7.23
2023-09-16T07:30:56.441Z,7.17
2023-09-16T07:33:23.258Z,6.57
2023-09-16T07:35:52.387Z,6.97
2023-09-16T07:38:19.480Z,6.93
2023-09-16T07:40:46.010Z,6.40
2023-09-16T07:43:13.332Z,6.97
2023-09-16T07:45:42.649Z,7.43
2023-09-16T07:48:11.150Z,6.60
2023-09-16T07:50:37.666Z,6.47
2023-09-16T07:53:04.390Z,6.53
2023-09-16T07:55:30.930Z,6.80
2023-09-16T07:57:57.455Z,6.90
2023-09-16T08:00:23.988Z,6.63
2023-09-16T08:02:51.014Z,6.73
2023-09-16T08:05:18.095Z,6.43
2023-09-16T08:07:44.605Z,6.60
2023-09-16T08:10:11.267Z,6.33
2023-09-16T08:12:37.776Z,6.77
2023-09-16T08:15:08.328Z,6.40
2023-09-16T08:17:35.169Z,6.40
2023-09-16T08:20:01.833Z,5.77
2023-09-16T08:22:29.527Z,6.20
2023-09-16T08:24:56.054Z,7.00
2023-09-16T08:27:22.703Z,6.47
2023-09-16T08:29:51.436Z,6.57
2023-09-16T08:32:18.016Z,6.33
2023-09-16T08:34:45.044Z,6.00
2023-09-16T08:37:14.737Z,5.90
2023-09-16T08:39:41.289Z,6.03
2023-09-16T08:42:25.494Z,6.10
2023-09-16T08:44:54.550Z,6.10
2023-09-16T08:47:49.767Z,6.00
2023-09-16T08:50:18.371Z,5.23
2023-09-16T08:52:50.876Z,6.27
2023-09-16T08:55:19.342Z,6.40
2023-09-16T08:58:02.345Z,6.10
2023-09-16T09:00:29.053Z,5.90
2023-09-16T09:02:56.318Z,6.20
2023-09-16T09:05:24.854Z,6.30
2023-09-16T09:07:51.919Z,5.80
2023-09-16T09:10:18.941Z,5.20
2023-09-16T09:12:46.046Z,6.40
2023-09-16T09:15:14.878Z,6.43
2023-09-16T09:17:49.853Z,5.80
2023-09-16T09:20:21.448Z,5.90
2023-09-16T09:22:50.191Z,6.07
2023-09-16T09:25:22.675Z,5.50
2023-09-16T09:27:54.430Z,5.90
2023-09-16T09:30:27.827Z,5.20
2023-09-16T09:32:58.798Z,5.20
2023-09-16T09:35:27.397Z,5.20
2023-09-16T09:37:54.186Z,4.93
2023-09-16T09:40:23.135Z,5.40
2023-09-16T09:42:51.863Z,5.47
2023-09-16T09:45:21.883Z,4.80
2023-09-16T09:47:50.894Z,4.47
2023-09-16T09:50:19.782Z,5.00
2023-09-16T09:52:47.938Z,4.70
2023-09-16T09:55:22.677Z,5.23
2023-09-16T09:57:53.687Z,4.67
2023-09-16T10:00:22.240Z,4.60
2023-09-16T10:02:49.477Z,4.87
2023-09-16T10:05:24.220Z,5.40
2023-09-16T10:07:52.820Z,4.30
2023-09-16T10:10:22.012Z,4.47
2023-09-16T10:12:54.414Z,4.40
2023-09-16T10:15:29.713Z,4.90
2023-09-16T10:17:57.812Z,4.10
2023-09-16T10:20:24.616Z,4.10
2023-09-16T10:22:52.423Z,5.37
2023-09-16T10:25:19.368Z,4.80
2023-09-16T10:27:58.147Z,4.37
2023-09-16T10:30:26.049Z,4.77
2023-09-16T10:32:54.537Z,4.87
2023-09-16T10:35:21.369Z,4.50
2023-09-16T10:37:52.005Z,4.53
2023-09-16T10:40:20.747Z,4.67
2023-09-16T10:42:48.306Z,4.83
2023-09-16T10:45:17.212Z,4.90
2023-09-16T10:47:43.945Z,4.70
2023-09-16T10:50:11.136Z,4.50
2023-09-16T10:52:53.251Z,4.53
2023-09-16T10:55:35.420Z,4.60
2023-09-16T10:58:36.362Z,4.27
2023-09-16T11:01:03.833Z,4.20
2023-09-16T11:03:33.366Z,4.30
2023-09-16T11:06:02.476Z,4.20
2023-09-16T11:08:29.815Z,4.13
2023-09-16T11:10:59.629Z,4.10
2023-09-16T11:13:29.018Z,4.50
2023-09-16T11:16:00.093Z,3.97
2023-09-16T11:18:26.860Z,4.10
2023-09-16T11:20:54.674Z,3.87
2023-09-16T11:23:22.904Z,3.70
2023-09-16T11:25:49.579Z,4.07
2023-09-16T11:28:19.527Z,4.03
2023-09-16T11:30:55.415Z,3.73
2023-09-16T11:33:29.489Z,4.03
2023-09-16T11:36:13.848Z,4.00
2023-09-16T11:38:54.047Z,4.23
2023-09-16T11:41:20.637Z,3.40
2023-09-16T11:43:47.600Z,3.70
2023-09-16T11:46:14.661Z,4.00
2023-09-16T11:48:55.920Z,3.83
2023-09-16T11:51:26.700Z,3.50
2023-09-16T11:53:54.921Z,4.10
2023-09-16T11:56:24.295Z,3.67
2023-09-16T11:58:51.491Z,4.23
2023-09-16T12:01:23.623Z,3.50
2023-09-16T12:03:50.945Z,3.97
2023-09-16T12:06:19.095Z,3.20
2023-09-16T12:08:46.508Z,3.83
2023-09-16T12:11:13.070Z,3.70
2023-09-16T12:13:42.806Z,3.37
2023-09-16T12:16:10.876Z,3.70
2023-09-16T12:18:37.769Z,3.10
2023-09-16T12:21:06.732Z,3.63
2023-09-16T12:23:33.594Z,4.30
2023-09-16T12:26:00.112Z,4.07
2023-09-16T12:28:27.453Z,3.93
2023-09-16T12:30:58.765Z,3.57
2023-09-16T12:33:41.219Z,3.67
2023-09-16T12:36:08.253Z,3.40
2023-09-16T12:38:38.089Z,3.30
2023-09-16T12:41:05.123Z,3.03
2023-09-16T12:43:33.081Z,3.37
2023-09-16T12:46:01.818Z,3.70
2023-09-16T12:48:30.167Z,3.20
2023-09-16T12:50:57.275Z,3.37
2023-09-16T12:53:28.079Z,3.13
2023-09-16T12:55:55.173Z,2.87
2023-09-16T12:58:23.200Z,3.13
2023-09-16T13:00:50.938Z,3.57
2023-09-16T13:03:18.296Z,3.03
2023-09-16T13:05:52.335Z,3.20
2023-09-16T13:08:21.169Z,3.53
2023-09-16T13:10:49.546Z,3.83
2023-09-16T13:13:17.616Z,3.50
2023-09-16T13:15:46.251Z,3.00
2023-09-16T13:18:13.502Z,3.10
2023-09-16T13:20:43.733Z,3.23
2023-09-16T13:23:25.906Z,3.37
2023-09-16T13:26:11.257Z,3.10
2023-09-16T13:28:37.778Z,3.00
2023-09-16T13:31:04.602Z,3.33
2023-09-16T13:34:06.781Z,3.33
2023-09-16T13:36:41.882Z,3.20
2023-09-16T13:39:11.210Z,3.23
2023-09-16T13:41:40.250Z,3.30
2023-09-16T13:44:09.248Z,2.93
2023-09-16T13:46:35.804Z,3.13
2023-09-16T13:49:02.604Z,3.90
2023-09-16T13:51:29.157Z,3.20
2023-09-16T13:53:55.622Z,3.10
2023-09-16T13:56:24.916Z,3.27
2023-09-16T13:58:51.950Z,2.80
2023-09-16T14:01:18.987Z,3.30
2023-09-16T14:03:45.760Z,3.23
2023-09-16T14:06:12.422Z,3.03
2023-09-16T14:08:39.091Z,2.90
2023-09-16T14:11:05.668Z,3.07
2023-09-16T14:13:32.396Z,3.00
2023-09-16T14:15:58.965Z,3.30
2023-09-16T14:18:26.654Z,2.63
2023-09-16T14:20:53.200Z,3.03
2023-09-16T14:23:19.822Z,3.07
2023-09-16T14:25:46.688Z,3.20
2023-09-16T14:28:13.362Z,2.80
2023-09-16T14:30:39.911Z,3.53
2023-09-16T14:33:06.949Z,3.20
2023-09-16T14:35:34.233Z,2.87
2023-09-16T14:38:04.575Z,3.30
2023-09-16T14:40:32.842Z,3.40
2023-09-16T14:43:00.857Z,3.30
2023-09-16T14:45:27.500Z,3.50
2023-09-16T14:47:54.029Z,2.83
2023-09-16T14:50:20.676Z,3.30
2023-09-16T14:52:47.285Z,3.23
2023-09-16T14:55:14.342Z,2.93
2023-09-16T14:57:40.836Z,3.20
2023-09-16T15:00:09.591Z,2.93
2023-09-16T15:02:37.358Z,3.63
2023-09-16T15:05:07.997Z,3.20
2023-09-16T15:07:34.559Z,3.00
2023-09-16T15:10:01.271Z,3.37
2023-09-16T15:12:27.903Z,2.80
2023-09-16T15:14:54.592Z,3.23
2023-09-16T15:17:21.104Z,3.30
2023-09-16T15:19:48.087Z,2.97
2023-09-16T15:22:14.594Z,2.83
2023-09-16T15:24:41.299Z,3.00
2023-09-16T15:27:07.775Z,2.90
2023-09-16T15:29:34.371Z,2.93
2023-09-16T15:32:29.704Z,3.00
2023-09-16T15:34:47.453Z,2.70
2023-09-16T15:37:14.625Z,3.10
2023-09-16T15:39:41.326Z,2.93
2023-09-16T15:42:07.890Z,3.10
2023-09-16T15:44:34.386Z,3.10
2023-09-16T15:47:02.612Z,3.40
2023-09-16T15:49:30.279Z,3.40
2023-09-16T15:51:57.084Z,3.00
2023-09-16T15:54:26.071Z,3.17
2023-09-16T15:56:53.696Z,3.17
2023-09-16T15:59:20.285Z,3.20
2023-09-16T16:01:46.983Z,3.03
2023-09-16T16:04:13.581Z,2.97
2023-09-16T16:06:41.165Z,2.93
2023-09-16T16:09:07.769Z,3.20
2023-09-16T16:11:34.468Z,3.07
2023-09-16T16:14:01.100Z,3.03
2023-09-16T16:16:27.849Z,3.20
2023-09-16T16:18:54.489Z,2.70
2023-09-16T16:21:21.098Z,2.97
2023-09-16T16:23:48.201Z,2.97
2023-09-16T16:26:16.362Z,3.20
2023-09-16T16:28:43.027Z,3.30
2023-09-16T16:31:09.738Z,3.20
2023-09-16T16:33:36.434Z,2.73
2023-09-16T16:36:04.120Z,3.17
2023-09-16T16:38:31.046Z,3.17
2023-09-16T16:40:57.973Z,2.77
2023-09-16T16:43:24.691Z,3.50
2023-09-16T16:45:51.331Z,3.00
2023-09-16T16:48:18.743Z,7.63
2023-09-16T16:50:45.546Z,5.70
2023-09-16T16:53:12.046Z,5.40
2023-09-16T16:55:38.542Z,3.80
2023-09-16T16:58:05.050Z,6.17
2023-09-16T17:00:31.593Z,8.23
2023-09-16T17:02:58.235Z,5.37
2023-09-16T17:05:27.320Z,7.40
2023-09-16T17:07:59.946Z,7.50
2023-09-16T17:10:26.705Z,16.07
2023-09-16T17:12:53.197Z,5.70
2023-09-16T17:15:19.695Z,5.10
2023-09-16T17:17:46.663Z,6.07
2023-09-16T17:20:14.917Z,4.30
2023-09-16T17:22:41.455Z,8.60
2023-09-16T17:25:08.351Z,4.00
2023-09-16T17:27:34.878Z,4.10
2023-09-16T17:30:02.497Z,6.17
2023-09-16T17:32:29.201Z,5.00
2023-09-16T17:34:55.802Z,7.10
2023-09-16T17:37:22.448Z,5.30
2023-09-16T17:39:48.979Z,4.40
2023-09-16T17:42:15.445Z,4.10
2023-09-16T17:44:41.954Z,4.63
2023-09-16T17:47:08.460Z,3.80
2023-09-16T17:49:35.013Z,4.70
2023-09-16T17:52:01.573Z,4.73
2023-09-16T17:54:28.110Z,4.20
2023-09-16T17:56:54.769Z,4.80
2023-09-16T17:59:22.102Z,4.70
2023-09-16T18:01:48.831Z,4.77
2023-09-16T18:04:15.433Z,4.97
2023-09-16T18:06:42.567Z,5.40
2023-09-16T18:09:11.802Z,4.50
2023-09-16T18:11:38.352Z,5.20
2023-09-16T18:14:05.461Z,5.17
2023-09-16T18:16:35.098Z,5.20
2023-09-16T18:19:01.663Z,5.90
2023-09-16T18:21:28.412Z,6.73
2023-09-16T18:23:54.919Z,6.13
2023-09-16T18:26:21.530Z,6.40
2023-09-16T18:28:48.207Z,6.00
2023-09-16T18:31:16.922Z,6.60
2023-09-16T18:33:44.369Z,6.40
2023-09-16T18:36:11.337Z,7.00
2023-09-16T18:38:40.351Z,6.87
2023-09-16T18:41:06.902Z,6.03
2023-09-16T18:43:34.488Z,6.60
2023-09-16T18:46:03.476Z,7.47
2023-09-16T18:48:30.154Z,8.67
2023-09-16T18:50:56.752Z,8.43
2023-09-16T18:53:24.247Z,10.00
2023-09-16T18:55:50.734Z,10.37
2023-09-16T18:58:17.297Z,8.80
2023-09-16T19:00:44.229Z,8.53
2023-09-16T19:03:11.158Z,8.60
2023-09-16T19:05:41.601Z,7.27
2023-09-16T19:08:09.901Z,6.43
2023-09-16T19:10:38.238Z,7.10
2023-09-16T19:13:05.036Z,6.80
2023-09-16T19:15:33.109Z,5.90
2023-09-16T19:17:59.971Z,6.70
2023-09-16T19:20:26.616Z,6.60
2023-09-16T19:22:53.713Z,5.27
2023-09-16T19:25:20.307Z,5.60
2023-09-16T19:27:46.859Z,5.43
2023-09-16T19:30:13.749Z,5.37
2023-09-16T19:32:40.239Z,5.13
2023-09-16T19:35:07.386Z,6.10
2023-09-16T19:37:33.912Z,5.43
2023-09-16T19:40:02.484Z,6.20
2023-09-16T19:42:29.360Z,5.50
2023-09-16T19:44:56.204Z,5.87
2023-09-16T19:47:25.329Z,6.03
2023-09-16T19:49:54.433Z,5.87
2023-09-16T19:52:21.073Z,5.80
2023-09-16T19:54:47.599Z,5.70
2023-09-16T19:57:14.243Z,6.13
2023-09-16T19:59:40.909Z,6.53
2023-09-16T20:02:07.478Z,6.40
2023-09-16T20:04:34.099Z,6.63
2023-09-16T20:07:01.813Z,7.30
2023-09-16T20:09:29.177Z,6.27
2023-09-16T20:11:55.802Z,6.20
2023-09-16T20:14:22.280Z,6.60
2023-09-16T20:16:48.914Z,6.43
2023-09-16T20:19:19.659Z,5.90
2023-09-16T20:21:47.593Z,6.40
2023-09-16T20:24:14.084Z,5.90
2023-09-16T20:26:40.847Z,5.93
2023-09-16T20:29:07.334Z,6.00
2023-09-16T20:31:34.124Z,6.10
2023-09-16T20:34:10.026Z,5.60
2023-09-16T20:36:38.070Z,5.87
2023-09-16T20:39:07.752Z,6.00
2023-09-16T20:41:34.325Z,5.87
2023-09-16T20:44:02.585Z,6.23
2023-09-16T20:46:29.945Z,6.43
2023-09-16T20:48:56.674Z,6.27
2023-09-16T20:51:23.125Z,6.53
2023-09-16T20:53:49.893Z,6.50
2023-09-16T20:56:16.608Z,6.77
2023-09-16T20:58:44.019Z,6.90
2023-09-16T21:01:10.815Z,6.93
2023-09-16T21:03:38.533Z,6.80
2023-09-16T21:06:05.282Z,6.37
2023-09-16T21:08:31.941Z,7.03
2023-09-16T21:10:58.407Z,7.57
2023-09-16T21:13:24.949Z,6.80
2023-09-16T21:15:52.140Z,6.47
2023-09-16T21:18:18.949Z,6.40
2023-09-16T21:20:45.384Z,6.80
2023-09-16T21:23:12.551Z,7.03
2023-09-16T21:25:40.630Z,6.10
2023-09-16T21:28:08.089Z,6.77
2023-09-16T21:30:34.838Z,6.70
2023-09-16T21:33:01.652Z,6.83
2023-09-16T21:35:29.910Z,6.80
2023-09-16T21:37:56.770Z,6.60
2023-09-16T21:40:24.326Z,7.37
2023-09-16T21:42:52.314Z,8.50
2023-09-16T21:45:19.067Z,7.43
2023-09-16T21:47:45.721Z,7.93
2023-09-16T21:50:12.422Z,7.80
2023-09-16T21:52:38.921Z,7.60
2023-09-16T21:55:05.904Z,7.30
2023-09-16T21:57:32.459Z,7.97
2023-09-16T21:59:58.960Z,8.30
2023-09-16T22:02:25.463Z,8.37
2023-09-16T22:04:52.588Z,7.50
2023-09-16T22:07:19.086Z,7.80
2023-09-16T22:09:47.235Z,8.07
2023-09-16T22:12:13.729Z,7.97
2023-09-16T22:14:40.233Z,9.30
2023-09-16T22:17:06.736Z,7.40
2023-09-16T22:19:33.300Z,7.97
2023-09-16T22:22:01.279Z,7.70
2023-09-16T22:24:27.805Z,7.40
2023-09-16T22:26:54.421Z,6.70
2023-09-16T22:29:20.953Z,7.40
2023-09-16T22:31:48.591Z,7.80
2023-09-16T22:34:15.099Z,7.90
2023-09-16T22:36:41.697Z,8.00
2023-09-16T22:39:09.388Z,7.70
2023-09-16T22:41:36.323Z,7.90
2023-09-16T22:44:03.884Z,7.17
2023-09-16T22:46:30.479Z,7.90
2023-09-16T22:48:57.051Z,8.00
2023-09-16T22:51:23.546Z,8.83
2023-09-16T22:53:50.187Z,8.07
2023-09-16T22:56:16.865Z,7.47
2023-09-16T22:58:45.692Z,7.30
2023-09-16T23:01:12.942Z,7.80
2023-09-16T23:03:39.836Z,7.20
2023-09-16T23:06:06.406Z,7.77
2023-09-16T23:08:33.017Z,7.30
2023-09-16T23:10:59.509Z,7.30
2023-09-16T23:13:26.045Z,7.50
2023-09-16T23:15:52.711Z,6.97
2023-09-16T23:18:19.199Z,7.07
2023-09-16T23:20:58.427Z,7.50
2023-09-16T23:23:26.293Z,7.00
2023-09-16T23:25:54.468Z,7.80
2023-09-16T23:28:21.996Z,7.67
2023-09-16T23:30:48.515Z,7.20
2023-09-16T23:33:16.413Z,6.90
2023-09-16T23:35:42.947Z,7.73
2023-09-16T23:38:09.634Z,7.50
2023-09-16T23:40:36.544Z,7.00
2023-09-16T23:43:04.495Z,7.80
2023-09-16T23:45:31.141Z,9.90
2023-09-16T23:47:57.624Z,9.60
2023-09-16T23:50:24.257Z,7.83
2023-09-16T23:52:50.725Z,7.40
2023-09-16T23:55:18.411Z,7.90
2023-09-16T23:57:44.940Z,7.17
